Midpark, Ohio
Current Conditions -  °F | °C
As of 2:51 AM on Tuesday 27 Jan 2015 (Local Time) from KCLE Reporting Station
Light Snow Light Snow  
Wind Chill:   Ceiling: 2700
Heat Index: 20°   Visibility: 7mi
Dew Point: 15°   Wind: 9mph
Humidity: 81%   Direction: 360°N
Pressure: 29.96"   Gusts: NA
Location:  41.3776°N, 81.7863°W
Report Text: KCLE 270751Z 36008KT 7SM -SN FEW011 OVC027 M07/M09 A2996 RMK AO2 SLP156 P0000 T10671094 $
Loading
Personal Weather Stations






























Interactive Weather Map New forecast layout! Learn more

10-Day Weather Forecast

Advertisements
Track Severe Weather on mobile